Caroline — WDD6402 — position and weather

sailwx.info

Track history (hours):
 
Tides and Currents Weather Stations Pressure Air Temp Water Temp Dewpoint Dewpoint Depression Visibility Wind Speed Wind Dir Waves Ship Positions

Caroline

Owner: HARBOR BREEZE CORP., RANCHO PALOS VERDES, CA. More information available from US FCC via Universal Licensing System and Coast Guard Vessel Documentation Center.

Last reported at 2018-Feb-18 22:01 UTC. Time now 2018-Feb-18 22:27 UTC.
Position N 33°46' W 118°12'.

Type: Passenger vessel. MMSI: 367172460.

Date/timePositionNaut miles runAvg speedWind from/ knotsBaromVisibWave heightAir tempDewpointWater temp
2018-Feb-18 22:01N 33°46' W 118°12'1 2.4
2018-Feb-18 21:30N 33°45' W 118°11'1 2.5
2018-Feb-18 21:00N 33°46' W 118°12'0 0.0
2018-Feb-18 20:31N 33°46' W 118°12'1 2.0
2018-Feb-18 20:00N 33°45' W 118°11'1 2.1
2018-Feb-18 19:31N 33°46' W 118°12'0 0.0
2018-Feb-18 19:01N 33°46' W 118°12'0 0.0
2018-Feb-18 02:31N 33°46' W 118°12'2 7.2
2018-Feb-18 02:15N 33°44' W 118°10'2 5.0
2018-Feb-18 01:51N 33°46' W 118°12'0 0.1
2018-Feb-18 01:30N 33°46' W 118°12'0 0.0
2018-Feb-18 01:00N 33°46' W 118°12'2 3.2
2018-Feb-18 00:30N 33°44' W 118°11'2 3.2
2018-Feb-18 00:00N 33°46' W 118°12'0 0.0
2018-Feb-17 23:30N 33°46' W 118°12'1 1.9
2018-Feb-17 23:00N 33°45' W 118°11'1 1.9
2018-Feb-17 22:30N 33°46' W 118°12'0 0.0
2018-Feb-17 22:00N 33°46' W 118°12'1 1.6
2018-Feb-17 21:30N 33°45' W 118°11'1 1.6
2018-Feb-17 20:59N 33°46' W 118°12'0 0.0
2018-Feb-17 20:30N 33°46' W 118°12'1 2.0
2018-Feb-17 19:59N 33°45' W 118°11'1 2.1
2018-Feb-17 19:30N 33°46' W 118°12'2 3.8
2018-Feb-17 18:59N 33°45' W 118°10'1 2.9
2018-Feb-17 18:30N 33°44' W 118°09'  
2018-Feb-12 01:44N 33°46' W 118°12'0 0.0
2018-Feb-12 01:30N 33°46' W 118°12'0 0.0
2018-Feb-12 01:00N 33°46' W 118°12'1 2.1
2018-Feb-12 00:30N 33°45' W 118°11'1 2.1
2018-Feb-12 00:00N 33°46' W 118°12'0 0.0
2018-Feb-11 23:30N 33°46' W 118°12'1 1.8
2018-Feb-11 23:00N 33°45' W 118°11'1 1.9
2018-Feb-11 22:30N 33°46' W 118°12'0 0.2
2018-Feb-11 22:00N 33°46' W 118°12'0 0.9
2018-Feb-11 21:30N 33°45' W 118°11'1 1.1
2018-Feb-11 21:00N 33°46' W 118°12'0 0.0
2018-Feb-11 20:30N 33°46' W 118°12'1 1.6
2018-Feb-11 19:59N 33°45' W 118°11'1 1.7
2018-Feb-11 19:30N 33°46' W 118°12'0 0.0
2018-Feb-11 19:00N 33°46' W 118°12'0 0.0
2018-Feb-11 01:44N 33°46' W 118°12'0 0.0
2018-Feb-11 01:30N 33°46' W 118°12'0 0.0
2018-Feb-11 01:01N 33°46' W 118°12'0 0.0
2018-Feb-11 00:30N 33°46' W 118°12'0 0.0
2018-Feb-11 00:01N 33°46' W 118°12'0 0.0
2018-Feb-10 23:30N 33°46' W 118°12'1 2.5
2018-Feb-10 23:00N 33°45' W 118°11'1 2.6
2018-Feb-10 22:31N 33°46' W 118°12'0 0.0
2018-Feb-10 22:00N 33°46' W 118°12'1 2.0
2018-Feb-10 21:29N 33°45' W 118°11'1 2.2
2018-Feb-10 21:00N 33°46' W 118°12'0 0.0
2018-Feb-10 20:31N 33°46' W 118°12'0 1.0
2018-Feb-10 20:00N 33°45' W 118°11'0 1.0
2018-Feb-10 19:30N 33°46' W 118°12'4 7.4
2018-Feb-10 19:00N 33°44' W 118°08'3 5.0
2018-Feb-10 18:30N 33°45' W 118°11'1 2.3
2018-Feb-10 18:00N 33°46' W 118°12'3 6.1
2018-Feb-10 17:30N 33°44' W 118°09'0 0.1
2018-Feb-10 17:00N 33°44' W 118°09'3 6.0
2018-Feb-10 16:30N 33°46' W 118°12'0 0.0
2018-Feb-10 16:01N 33°46' W 118°12'  
Track history (hours):
 
Tides and Currents Weather Stations Pressure Air Temp Water Temp Dewpoint Dewpoint Depression Visibility Wind Speed Wind Dir Waves Ship Positions

Caroline

Owner: HARBOR BREEZE CORP., RANCHO PALOS VERDES, CA. More information available from US FCC via Universal Licensing System and Coast Guard Vessel Documentation Center.

Last reported at 2018-Feb-18 22:01 UTC. Time now 2018-Feb-18 22:27 UTC.
Position N 33°46' W 118°12'.

Type: Passenger vessel. MMSI: 367172460.

Date/timePositionNaut miles runAvg speedWind from/ knotsBaromVisibWave heightAir tempDewpointWater temp
2018-Feb-18 22:01N 33°46' W 118°12'1 2.4
2018-Feb-18 21:30N 33°45' W 118°11'1 2.5
2018-Feb-18 21:00N 33°46' W 118°12'0 0.0
2018-Feb-18 20:31N 33°46' W 118°12'1 2.0
2018-Feb-18 20:00N 33°45' W 118°11'1 2.1
2018-Feb-18 19:31N 33°46' W 118°12'0 0.0
2018-Feb-18 19:01N 33°46' W 118°12'0 0.0
2018-Feb-18 02:31N 33°46' W 118°12'2 7.2
2018-Feb-18 02:15N 33°44' W 118°10'2 5.0
2018-Feb-18 01:51N 33°46' W 118°12'0 0.1
2018-Feb-18 01:30N 33°46' W 118°12'0 0.0
2018-Feb-18 01:00N 33°46' W 118°12'2 3.2
2018-Feb-18 00:30N 33°44' W 118°11'2 3.2
2018-Feb-18 00:00N 33°46' W 118°12'0 0.0
2018-Feb-17 23:30N 33°46' W 118°12'1 1.9
2018-Feb-17 23:00N 33°45' W 118°11'1 1.9
2018-Feb-17 22:30N 33°46' W 118°12'0 0.0
2018-Feb-17 22:00N 33°46' W 118°12'1 1.6
2018-Feb-17 21:30N 33°45' W 118°11'1 1.6
2018-Feb-17 20:59N 33°46' W 118°12'0 0.0
2018-Feb-17 20:30N 33°46' W 118°12'1 2.0
2018-Feb-17 19:59N 33°45' W 118°11'1 2.1
2018-Feb-17 19:30N 33°46' W 118°12'2 3.8
2018-Feb-17 18:59N 33°45' W 118°10'1 2.9
2018-Feb-17 18:30N 33°44' W 118°09'  
2018-Feb-12 01:44N 33°46' W 118°12'0 0.0
2018-Feb-12 01:30N 33°46' W 118°12'0 0.0
2018-Feb-12 01:00N 33°46' W 118°12'1 2.1
2018-Feb-12 00:30N 33°45' W 118°11'1 2.1
2018-Feb-12 00:00N 33°46' W 118°12'0 0.0
2018-Feb-11 23:30N 33°46' W 118°12'1 1.8
2018-Feb-11 23:00N 33°45' W 118°11'1 1.9
2018-Feb-11 22:30N 33°46' W 118°12'0 0.2
2018-Feb-11 22:00N 33°46' W 118°12'0 0.9
2018-Feb-11 21:30N 33°45' W 118°11'1 1.1
2018-Feb-11 21:00N 33°46' W 118°12'0 0.0
2018-Feb-11 20:30N 33°46' W 118°12'1 1.6
2018-Feb-11 19:59N 33°45' W 118°11'1 1.7
2018-Feb-11 19:30N 33°46' W 118°12'0 0.0
2018-Feb-11 19:00N 33°46' W 118°12'0 0.0
2018-Feb-11 01:44N 33°46' W 118°12'0 0.0
2018-Feb-11 01:30N 33°46' W 118°12'0 0.0
2018-Feb-11 01:01N 33°46' W 118°12'0 0.0
2018-Feb-11 00:30N 33°46' W 118°12'0 0.0
2018-Feb-11 00:01N 33°46' W 118°12'0 0.0
2018-Feb-10 23:30N 33°46' W 118°12'1 2.5
2018-Feb-10 23:00N 33°45' W 118°11'1 2.6
2018-Feb-10 22:31N 33°46' W 118°12'0 0.0
2018-Feb-10 22:00N 33°46' W 118°12'1 2.0
2018-Feb-10 21:29N 33°45' W 118°11'1 2.2
2018-Feb-10 21:00N 33°46' W 118°12'0 0.0
2018-Feb-10 20:31N 33°46' W 118°12'0 1.0
2018-Feb-10 20:00N 33°45' W 118°11'0 1.0
2018-Feb-10 19:30N 33°46' W 118°12'4 7.4
2018-Feb-10 19:00N 33°44' W 118°08'3 5.0
2018-Feb-10 18:30N 33°45' W 118°11'1 2.3
2018-Feb-10 18:00N 33°46' W 118°12'3 6.1
2018-Feb-10 17:30N 33°44' W 118°09'0 0.1
2018-Feb-10 17:00N 33°44' W 118°09'3 6.0
2018-Feb-10 16:30N 33°46' W 118°12'0 0.0
2018-Feb-10 16:01N 33°46' W 118°12'  

Dump ship's entire track history